sensor_id;sensor_type;location;lat;lon;timestamp;temperature;humidity
23122;DHT22;11730;51.248;22.534;2022-12-22T00:00:00;1.70;99.90
23122;DHT22;11730;51.248;22.534;2022-12-22T00:02:45;1.60;99.90
23122;DHT22;11730;51.248;22.534;2022-12-22T00:08:17;1.60;99.90
23122;DHT22;11730;51.248;22.534;2022-12-22T00:11:08;1.70;99.90
23122;DHT22;11730;51.248;22.534;2022-12-22T00:16:40;1.70;99.90
23122;DHT22;11730;51.248;22.534;2022-12-22T00:19:26;1.80;99.90
23122;DHT22;11730;51.248;22.534;2022-12-22T00:22:21;1.80;99.90
23122;DHT22;11730;51.248;22.534;2022-12-22T00:25:06;1.80;99.90
23122;DHT22;11730;51.248;22.534;2022-12-22T00:27:52;1.60;99.90
23122;DHT22;11730;51.248;22.534;2022-12-22T00:30:37;1.60;99.90
23122;DHT22;11730;51.248;22.534;2022-12-22T00:33:23;1.50;99.90
23122;DHT22;11730;51.248;22.534;2022-12-22T00:36:10;1.60;99.90
23122;DHT22;11730;51.248;22.534;2022-12-22T00:38:56;1.60;99.90
23122;DHT22;11730;51.248;22.534;2022-12-22T00:41:41;1.70;99.90
23122;DHT22;11730;51.248;22.534;2022-12-22T00:47:18;1.90;99.90
23122;DHT22;11730;51.248;22.534;2022-12-22T00:50:07;1.80;99.90
23122;DHT22;11730;51.248;22.534;2022-12-22T00:52:53;1.80;99.90
23122;DHT22;11730;51.248;22.534;2022-12-22T00:58:25;1.90;99.90
23122;DHT22;11730;51.248;22.534;2022-12-22T01:01:11;1.80;99.90
23122;DHT22;11730;51.248;22.534;2022-12-22T01:03:57;1.70;99.90
23122;DHT22;11730;51.248;22.534;2022-12-22T01:06:42;1.90;99.90
23122;DHT22;11730;51.248;22.534;2022-12-22T01:09:28;1.80;99.90
23122;DHT22;11730;51.248;22.534;2022-12-22T01:12:18;1.80;99.90
23122;DHT22;11730;51.248;22.534;2022-12-22T01:15:15;1.90;99.90
23122;DHT22;11730;51.248;22.534;2022-12-22T01:18:02;1.80;99.90
23122;DHT22;11730;51.248;22.534;2022-12-22T01:20:47;1.80;99.90
23122;DHT22;11730;51.248;22.534;2022-12-22T01:23:33;1.70;99.90
23122;DHT22;11730;51.248;22.534;2022-12-22T01:26:19;1.80;99.90
23122;DHT22;11730;51.248;22.534;2022-12-22T01:29:05;1.80;99.90
23122;DHT22;11730;51.248;22.534;2022-12-22T01:31:50;1.80;99.90
23122;DHT22;11730;51.248;22.534;2022-12-22T01:37:22;1.90;99.90
23122;DHT22;11730;51.248;22.534;2022-12-22T01:40:16;1.90;99.90
23122;DHT22;11730;51.248;22.534;2022-12-22T01:45:47;2.00;99.90
23122;DHT22;11730;51.248;22.534;2022-12-22T01:48:33;2.00;99.90
23122;DHT22;11730;51.248;22.534;2022-12-22T01:51:21;2.00;99.90
23122;DHT22;11730;51.248;22.534;2022-12-22T01:54:11;2.00;99.90
23122;DHT22;11730;51.248;22.534;2022-12-22T01:56:58;1.90;99.90
23122;DHT22;11730;51.248;22.534;2022-12-22T01:59:43;2.00;99.90
23122;DHT22;11730;51.248;22.534;2022-12-22T02:02:29;2.00;99.90
23122;DHT22;11730;51.248;22.534;2022-12-22T02:05:16;1.90;99.90
23122;DHT22;11730;51.248;22.534;2022-12-22T02:08:35;1.90;99.90
23122;DHT22;11730;51.248;22.534;2022-12-22T02:12:24;2.00;99.90
23122;DHT22;11730;51.248;22.534;2022-12-22T02:15:10;2.10;99.90
23122;DHT22;11730;51.248;22.534;2022-12-22T02:18:14;2.20;99.90
23122;DHT22;11730;51.248;22.534;2022-12-22T02:21:04;2.10;99.90
23122;DHT22;11730;51.248;22.534;2022-12-22T02:24:16;2.10;99.90
23122;DHT22;11730;51.248;22.534;2022-12-22T02:27:03;2.10;99.90
23122;DHT22;11730;51.248;22.534;2022-12-22T02:29:53;2.10;99.90
23122;DHT22;11730;51.248;22.534;2022-12-22T02:32:41;2.20;99.90
23122;DHT22;11730;51.248;22.534;2022-12-22T02:44:32;2.30;99.90
23122;DHT22;11730;51.248;22.534;2022-12-22T02:53:05;2.20;99.90
23122;DHT22;11730;51.248;22.534;2022-12-22T02:56:09;2.20;99.90
23122;DHT22;11730;51.248;22.534;2022-12-22T02:58:55;2.10;99.90
23122;DHT22;11730;51.248;22.534;2022-12-22T03:01:44;2.30;99.90
23122;DHT22;11730;51.248;22.534;2022-12-22T03:04:30;2.20;99.90
23122;DHT22;11730;51.248;22.534;2022-12-22T03:07:16;2.20;99.90
23122;DHT22;11730;51.248;22.534;2022-12-22T03:10:01;2.20;99.90
23122;DHT22;11730;51.248;22.534;2022-12-22T03:21:05;2.30;99.90
23122;DHT22;11730;51.248;22.534;2022-12-22T03:29:04;2.30;99.90
23122;DHT22;11730;51.248;22.534;2022-12-22T03:33:59;2.30;99.90
23122;DHT22;11730;51.248;22.534;2022-12-22T03:36:26;2.10;99.90
23122;DHT22;11730;51.248;22.534;2022-12-22T03:38:53;2.00;99.90
23122;DHT22;11730;51.248;22.534;2022-12-22T03:49:19;2.10;99.90
23122;DHT22;11730;51.248;22.534;2022-12-22T03:51:49;2.10;99.90
23122;DHT22;11730;51.248;22.534;2022-12-22T03:54:19;2.10;99.90
23122;DHT22;11730;51.248;22.534;2022-12-22T03:56:47;2.00;99.90
23122;DHT22;11730;51.248;22.534;2022-12-22T03:59:14;2.00;99.90
23122;DHT22;11730;51.248;22.534;2022-12-22T04:01:44;2.10;99.90
23122;DHT22;11730;51.248;22.534;2022-12-22T04:04:12;2.00;99.90
23122;DHT22;11730;51.248;22.534;2022-12-22T04:06:40;2.00;99.90
23122;DHT22;11730;51.248;22.534;2022-12-22T04:09:07;2.10;99.90
23122;DHT22;11730;51.248;22.534;2022-12-22T04:11:34;2.10;99.90
23122;DHT22;11730;51.248;22.534;2022-12-22T04:14:20;2.10;99.90
23122;DHT22;11730;51.248;22.534;2022-12-22T04:16:53;2.10;99.90
23122;DHT22;11730;51.248;22.534;2022-12-22T04:19:20;2.00;99.90
23122;DHT22;11730;51.248;22.534;2022-12-22T04:21:47;2.20;99.90
23122;DHT22;11730;51.248;22.534;2022-12-22T04:24:14;2.10;99.90
23122;DHT22;11730;51.248;22.534;2022-12-22T04:29:08;2.10;99.90
23122;DHT22;11730;51.248;22.534;2022-12-22T04:31:35;2.10;99.90
23122;DHT22;11730;51.248;22.534;2022-12-22T04:34:02;2.10;99.90
23122;DHT22;11730;51.248;22.534;2022-12-22T04:36:29;2.10;99.90
23122;DHT22;11730;51.248;22.534;2022-12-22T04:38:56;2.20;99.90
23122;DHT22;11730;51.248;22.534;2022-12-22T04:46:17;2.40;99.90
23122;DHT22;11730;51.248;22.534;2022-12-22T04:51:11;2.40;99.90
23122;DHT22;11730;51.248;22.534;2022-12-22T04:53:38;2.30;99.90
23122;DHT22;11730;51.248;22.534;2022-12-22T04:56:06;2.20;99.90
23122;DHT22;11730;51.248;22.534;2022-12-22T04:58:33;2.00;99.90
23122;DHT22;11730;51.248;22.534;2022-12-22T05:01:14;2.00;99.90
23122;DHT22;11730;51.248;22.534;2022-12-22T05:03:42;2.00;99.90
23122;DHT22;11730;51.248;22.534;2022-12-22T05:06:10;2.10;99.90
23122;DHT22;11730;51.248;22.534;2022-12-22T05:08:37;2.10;99.90
23122;DHT22;11730;51.248;22.534;2022-12-22T05:11:05;2.00;99.90
23122;DHT22;11730;51.248;22.534;2022-12-22T05:16:08;2.00;99.90
23122;DHT22;11730;51.248;22.534;2022-12-22T05:18:36;2.00;99.90
23122;DHT22;11730;51.248;22.534;2022-12-22T05:21:15;2.10;99.90
23122;DHT22;11730;51.248;22.534;2022-12-22T05:23:43;2.00;99.90
23122;DHT22;11730;51.248;22.534;2022-12-22T05:28:41;2.10;99.90
23122;DHT22;11730;51.248;22.534;2022-12-22T05:31:12;2.10;99.90
23122;DHT22;11730;51.248;22.534;2022-12-22T05:33:40;2.10;99.90
23122;DHT22;11730;51.248;22.534;2022-12-22T05:36:07;2.20;99.90
23122;DHT22;11730;51.248;22.534;2022-12-22T05:43:31;2.00;99.90
23122;DHT22;11730;51.248;22.534;2022-12-22T05:46:04;2.00;99.90
23122;DHT22;11730;51.248;22.534;2022-12-22T05:48:31;1.90;99.90
23122;DHT22;11730;51.248;22.534;2022-12-22T05:51:06;2.10;99.90
23122;DHT22;11730;51.248;22.534;2022-12-22T05:53:33;2.20;99.90
23122;DHT22;11730;51.248;22.534;2022-12-22T05:58:27;2.20;99.90
23122;DHT22;11730;51.248;22.534;2022-12-22T06:00:58;2.10;99.90
23122;DHT22;11730;51.248;22.534;2022-12-22T06:03:26;2.20;99.90
23122;DHT22;11730;51.248;22.534;2022-12-22T06:08:21;2.30;99.90
23122;DHT22;11730;51.248;22.534;2022-12-22T06:13:15;2.20;99.90
23122;DHT22;11730;51.248;22.534;2022-12-22T06:15:43;2.40;99.90
23122;DHT22;11730;51.248;22.534;2022-12-22T06:18:10;2.50;99.90
23122;DHT22;11730;51.248;22.534;2022-12-22T06:25:31;2.30;99.90
23122;DHT22;11730;51.248;22.534;2022-12-22T06:30:26;2.40;99.90
23122;DHT22;11730;51.248;22.534;2022-12-22T06:35:26;2.50;99.90
23122;DHT22;11730;51.248;22.534;2022-12-22T06:37:53;2.50;99.90
23122;DHT22;11730;51.248;22.534;2022-12-22T06:40:20;2.20;99.90
23122;DHT22;11730;51.248;22.534;2022-12-22T06:45:36;2.40;99.90
23122;DHT22;11730;51.248;22.534;2022-12-22T06:48:04;2.30;99.90
23122;DHT22;11730;51.248;22.534;2022-12-22T06:50:31;2.50;99.90
23122;DHT22;11730;51.248;22.534;2022-12-22T06:52:59;2.50;99.90
23122;DHT22;11730;51.248;22.534;2022-12-22T07:02:48;2.40;99.90
23122;DHT22;11730;51.248;22.534;2022-12-22T07:05:15;2.60;99.90
23122;DHT22;11730;51.248;22.534;2022-12-22T07:10:10;2.40;99.90
23122;DHT22;11730;51.248;22.534;2022-12-22T07:12:37;2.30;99.90
23122;DHT22;11730;51.248;22.534;2022-12-22T07:15:04;2.60;99.90
23122;DHT22;11730;51.248;22.534;2022-12-22T07:17:31;2.60;99.90
23122;DHT22;11730;51.248;22.534;2022-12-22T07:19:58;2.60;99.90
23122;DHT22;11730;51.248;22.534;2022-12-22T07:24:57;2.60;99.90
23122;DHT22;11730;51.248;22.534;2022-12-22T07:27:23;2.60;99.90
23122;DHT22;11730;51.248;22.534;2022-12-22T07:29:51;2.40;99.90
23122;DHT22;11730;51.248;22.534;2022-12-22T07:34:45;2.30;99.90
23122;DHT22;11730;51.248;22.534;2022-12-22T07:37:12;2.50;99.90
23122;DHT22;11730;51.248;22.534;2022-12-22T07:39:39;2.50;99.90
23122;DHT22;11730;51.248;22.534;2022-12-22T07:42:07;2.40;99.90
23122;DHT22;11730;51.248;22.534;2022-12-22T07:47:21;2.70;99.90
23122;DHT22;11730;51.248;22.534;2022-12-22T07:49:48;2.70;99.90
23122;DHT22;11730;51.248;22.534;2022-12-22T07:55:01;2.50;99.90
23122;DHT22;11730;51.248;22.534;2022-12-22T07:57:28;2.60;99.90
23122;DHT22;11730;51.248;22.534;2022-12-22T08:04:50;2.90;99.90
23122;DHT22;11730;51.248;22.534;2022-12-22T08:07:17;2.80;99.90
23122;DHT22;11730;51.248;22.534;2022-12-22T08:12:11;2.90;99.90
23122;DHT22;11730;51.248;22.534;2022-12-22T08:17:05;2.70;99.90
23122;DHT22;11730;51.248;22.534;2022-12-22T08:19:32;2.80;99.90
23122;DHT22;11730;51.248;22.534;2022-12-22T08:21:59;3.00;99.90
23122;DHT22;11730;51.248;22.534;2022-12-22T08:24:26;2.80;99.90
23122;DHT22;11730;51.248;22.534;2022-12-22T08:26:56;2.90;99.90
23122;DHT22;11730;51.248;22.534;2022-12-22T08:29:34;2.90;99.90
23122;DHT22;11730;51.248;22.534;2022-12-22T08:32:01;3.00;99.90
23122;DHT22;11730;51.248;22.534;2022-12-22T08:34:29;3.10;99.90
23122;DHT22;11730;51.248;22.534;2022-12-22T08:36:58;3.10;99.90
23122;DHT22;11730;51.248;22.534;2022-12-22T08:39:29;3.00;99.90
23122;DHT22;11730;51.248;22.534;2022-12-22T08:41:58;2.90;99.90
23122;DHT22;11730;51.248;22.534;2022-12-22T08:44:27;3.00;99.90
23122;DHT22;11730;51.248;22.534;2022-12-22T08:46:56;3.20;99.90
23122;DHT22;11730;51.248;22.534;2022-12-22T08:51:51;3.20;99.90
23122;DHT22;11730;51.248;22.534;2022-12-22T08:54:19;3.10;99.90
23122;DHT22;11730;51.248;22.534;2022-12-22T08:56:46;3.10;99.90
23122;DHT22;11730;51.248;22.534;2022-12-22T09:01:42;3.10;99.90
23122;DHT22;11730;51.248;22.534;2022-12-22T09:04:14;3.20;99.90
23122;DHT22;11730;51.248;22.534;2022-12-22T09:09:11;3.20;99.90
23122;DHT22;11730;51.248;22.534;2022-12-22T09:11:39;3.20;99.90
23122;DHT22;11730;51.248;22.534;2022-12-22T09:14:07;3.10;99.90
23122;DHT22;11730;51.248;22.534;2022-12-22T09:19:02;2.90;99.90
23122;DHT22;11730;51.248;22.534;2022-12-22T09:21:30;2.90;99.90
23122;DHT22;11730;51.248;22.534;2022-12-22T09:23:57;3.10;99.90
23122;DHT22;11730;51.248;22.534;2022-12-22T09:26:26;3.20;99.90
23122;DHT22;11730;51.248;22.534;2022-12-22T09:28:54;3.50;99.90
23122;DHT22;11730;51.248;22.534;2022-12-22T09:31:22;4.10;99.90
23122;DHT22;11730;51.248;22.534;2022-12-22T09:33:50;4.90;99.90
23122;DHT22;11730;51.248;22.534;2022-12-22T09:36:24;5.20;99.90
23122;DHT22;11730;51.248;22.534;2022-12-22T09:41:27;5.60;99.90
23122;DHT22;11730;51.248;22.534;2022-12-22T09:44:04;6.10;99.90
23122;DHT22;11730;51.248;22.534;2022-12-22T09:46:34;6.60;99.90
23122;DHT22;11730;51.248;22.534;2022-12-22T09:49:04;7.00;99.90
23122;DHT22;11730;51.248;22.534;2022-12-22T09:51:38;7.60;99.90
23122;DHT22;11730;51.248;22.534;2022-12-22T09:54:10;7.80;99.90
23122;DHT22;11730;51.248;22.534;2022-12-22T09:59:15;6.20;99.90
23122;DHT22;11730;51.248;22.534;2022-12-22T10:07:25;5.00;99.90
23122;DHT22;11730;51.248;22.534;2022-12-22T10:09:52;4.90;99.90
23122;DHT22;11730;51.248;22.534;2022-12-22T10:12:22;4.40;99.90
23122;DHT22;11730;51.248;22.534;2022-12-22T10:14:50;4.50;99.90
23122;DHT22;11730;51.248;22.534;2022-12-22T10:17:25;4.30;99.90
23122;DHT22;11730;51.248;22.534;2022-12-22T10:20:07;4.30;99.90
23122;DHT22;11730;51.248;22.534;2022-12-22T10:22:44;4.10;99.90
23122;DHT22;11730;51.248;22.534;2022-12-22T10:27:54;3.80;99.90
23122;DHT22;11730;51.248;22.534;2022-12-22T10:30:27;3.60;99.90
23122;DHT22;11730;51.248;22.534;2022-12-22T10:33:06;3.50;99.90
23122;DHT22;11730;51.248;22.534;2022-12-22T10:35:52;3.50;99.90
23122;DHT22;11730;51.248;22.534;2022-12-22T10:38:29;3.50;99.90
23122;DHT22;11730;51.248;22.534;2022-12-22T10:46:13;3.60;99.90
23122;DHT22;11730;51.248;22.534;2022-12-22T10:48:40;3.30;99.90
23122;DHT22;11730;51.248;22.534;2022-12-22T10:51:10;3.40;99.90
23122;DHT22;11730;51.248;22.534;2022-12-22T10:53:53;3.30;99.90
23122;DHT22;11730;51.248;22.534;2022-12-22T10:56:28;3.20;99.90
23122;DHT22;11730;51.248;22.534;2022-12-22T10:59:17;3.30;99.90
23122;DHT22;11730;51.248;22.534;2022-12-22T11:01:45;3.30;99.90
23122;DHT22;11730;51.248;22.534;2022-12-22T11:04:26;3.20;99.90
23122;DHT22;11730;51.248;22.534;2022-12-22T11:07:07;3.40;99.90
23122;DHT22;11730;51.248;22.534;2022-12-22T11:09:35;3.20;99.90
23122;DHT22;11730;51.248;22.534;2022-12-22T11:12:18;3.30;99.90
23122;DHT22;11730;51.248;22.534;2022-12-22T11:15:01;3.10;99.90
23122;DHT22;11730;51.248;22.534;2022-12-22T11:25:46;3.40;99.90
23122;DHT22;11730;51.248;22.534;2022-12-22T11:48:30;3.70;99.90
23122;DHT22;11730;51.248;22.534;2022-12-22T11:50:44;3.70;99.90
23122;DHT22;11730;51.248;22.534;2022-12-22T12:10:19;3.80;99.90
23122;DHT22;11730;51.248;22.534;2022-12-22T12:18:51;4.90;99.90
23122;DHT22;11730;51.248;22.534;2022-12-22T12:21:28;5.60;99.90
23122;DHT22;11730;51.248;22.534;2022-12-22T12:24:02;6.00;99.90
23122;DHT22;11730;51.248;22.534;2022-12-22T12:29:24;6.70;99.90
23122;DHT22;11730;51.248;22.534;2022-12-22T12:32:26;6.90;99.90
23122;DHT22;11730;51.248;22.534;2022-12-22T12:35:14;7.00;99.90
23122;DHT22;11730;51.248;22.534;2022-12-22T12:37:45;7.10;99.90
23122;DHT22;11730;51.248;22.534;2022-12-22T12:42:50;6.50;99.90
23122;DHT22;11730;51.248;22.534;2022-12-22T12:45:39;6.10;99.90
23122;DHT22;11730;51.248;22.534;2022-12-22T12:53:20;5.30;99.90
23122;DHT22;11730;51.248;22.534;2022-12-22T13:03:46;4.70;99.90
23122;DHT22;11730;51.248;22.534;2022-12-22T13:09:21;4.80;99.90
23122;DHT22;11730;51.248;22.534;2022-12-22T13:17:47;4.80;99.90
23122;DHT22;11730;51.248;22.534;2022-12-22T13:20:37;4.90;99.90
23122;DHT22;11730;51.248;22.534;2022-12-22T13:23:10;4.80;99.90
23122;DHT22;11730;51.248;22.534;2022-12-22T13:25:44;4.70;99.90
23122;DHT22;11730;51.248;22.534;2022-12-22T13:28:18;4.70;99.90
23122;DHT22;11730;51.248;22.534;2022-12-22T13:30:52;4.70;99.90
23122;DHT22;11730;51.248;22.534;2022-12-22T13:33:23;4.60;99.90
23122;DHT22;11730;51.248;22.534;2022-12-22T13:35:52;4.50;99.90
23122;DHT22;11730;51.248;22.534;2022-12-22T13:38:31;4.40;99.90
23122;DHT22;11730;51.248;22.534;2022-12-22T13:41:02;4.30;99.90
23122;DHT22;11730;51.248;22.534;2022-12-22T13:43:31;4.40;99.90
23122;DHT22;11730;51.248;22.534;2022-12-22T13:46:01;4.40;99.90
23122;DHT22;11730;51.248;22.534;2022-12-22T13:48:39;4.30;99.90
23122;DHT22;11730;51.248;22.534;2022-12-22T13:51:27;4.30;99.90
23122;DHT22;11730;51.248;22.534;2022-12-22T13:54:01;4.20;99.90
23122;DHT22;11730;51.248;22.534;2022-12-22T13:56:41;4.20;99.90
23122;DHT22;11730;51.248;22.534;2022-12-22T13:59:38;4.20;99.90
23122;DHT22;11730;51.248;22.534;2022-12-22T14:04:39;4.10;99.90
23122;DHT22;11730;51.248;22.534;2022-12-22T14:07:14;4.10;99.90
23122;DHT22;11730;51.248;22.534;2022-12-22T14:09:48;4.10;99.90
23122;DHT22;11730;51.248;22.534;2022-12-22T14:12:19;4.20;99.90
23122;DHT22;11730;51.248;22.534;2022-12-22T14:14:48;4.10;99.90
23122;DHT22;11730;51.248;22.534;2022-12-22T14:17:28;4.10;99.90
23122;DHT22;11730;51.248;22.534;2022-12-22T14:19:58;4.10;99.90
23122;DHT22;11730;51.248;22.534;2022-12-22T14:22:34;3.80;99.90
23122;DHT22;11730;51.248;22.534;2022-12-22T14:25:11;4.00;99.90
23122;DHT22;11730;51.248;22.534;2022-12-22T14:27:49;4.10;99.90
23122;DHT22;11730;51.248;22.534;2022-12-22T14:30:20;4.00;99.90
23122;DHT22;11730;51.248;22.534;2022-12-22T14:32:52;4.00;99.90
23122;DHT22;11730;51.248;22.534;2022-12-22T14:35:26;4.00;99.90
23122;DHT22;11730;51.248;22.534;2022-12-22T14:40:40;4.00;99.90
23122;DHT22;11730;51.248;22.534;2022-12-22T14:45:47;3.90;99.90
23122;DHT22;11730;51.248;22.534;2022-12-22T14:48:56;3.90;99.90
23122;DHT22;11730;51.248;22.534;2022-12-22T14:51:16;3.90;99.90
23122;DHT22;11730;51.248;22.534;2022-12-22T14:53:53;3.80;99.90
23122;DHT22;11730;51.248;22.534;2022-12-22T14:56:21;3.70;99.90
23122;DHT22;11730;51.248;22.534;2022-12-22T14:58:49;3.70;99.90
23122;DHT22;11730;51.248;22.534;2022-12-22T15:01:25;3.50;99.90
23122;DHT22;11730;51.248;22.534;2022-12-22T15:06:37;3.10;99.90
23122;DHT22;11730;51.248;22.534;2022-12-22T15:11:39;3.40;99.90
23122;DHT22;11730;51.248;22.534;2022-12-22T15:14:14;3.50;99.90
23122;DHT22;11730;51.248;22.534;2022-12-22T15:16:42;3.50;99.90
23122;DHT22;11730;51.248;22.534;2022-12-22T15:19:13;3.50;99.90
23122;DHT22;11730;51.248;22.534;2022-12-22T15:21:40;3.60;99.90
23122;DHT22;11730;51.248;22.534;2022-12-22T15:24:11;3.60;99.90
23122;DHT22;11730;51.248;22.534;2022-12-22T15:26:38;3.50;99.90
23122;DHT22;11730;51.248;22.534;2022-12-22T15:29:05;3.50;99.90
23122;DHT22;11730;51.248;22.534;2022-12-22T15:31:33;3.50;99.90
23122;DHT22;11730;51.248;22.534;2022-12-22T15:34:02;3.50;99.90
23122;DHT22;11730;51.248;22.534;2022-12-22T15:36:29;3.50;99.90
23122;DHT22;11730;51.248;22.534;2022-12-22T15:38:56;3.60;99.90
23122;DHT22;11730;51.248;22.534;2022-12-22T15:41:23;3.40;99.90
23122;DHT22;11730;51.248;22.534;2022-12-22T15:43:50;3.40;99.90
23122;DHT22;11730;51.248;22.534;2022-12-22T15:46:25;3.40;99.90
23122;DHT22;11730;51.248;22.534;2022-12-22T15:51:23;3.60;99.90
23122;DHT22;11730;51.248;22.534;2022-12-22T15:53:50;3.50;99.90
23122;DHT22;11730;51.248;22.534;2022-12-22T15:56:20;3.40;99.90
23122;DHT22;11730;51.248;22.534;2022-12-22T15:58:48;3.40;99.90
23122;DHT22;11730;51.248;22.534;2022-12-22T16:01:15;3.40;99.90
23122;DHT22;11730;51.248;22.534;2022-12-22T16:06:14;3.30;99.90
23122;DHT22;11730;51.248;22.534;2022-12-22T16:08:45;3.20;99.90
23122;DHT22;11730;51.248;22.534;2022-12-22T16:11:14;3.40;99.90
23122;DHT22;11730;51.248;22.534;2022-12-22T16:18:37;3.30;99.90
23122;DHT22;11730;51.248;22.534;2022-12-22T16:21:09;3.30;99.90
23122;DHT22;11730;51.248;22.534;2022-12-22T16:23:37;3.40;99.90
23122;DHT22;11730;51.248;22.534;2022-12-22T16:26:06;3.40;99.90
23122;DHT22;11730;51.248;22.534;2022-12-22T16:28:33;3.40;99.90
23122;DHT22;11730;51.248;22.534;2022-12-22T16:35:55;3.70;99.90
23122;DHT22;11730;51.248;22.534;2022-12-22T16:40:50;3.60;99.90
23122;DHT22;11730;51.248;22.534;2022-12-22T16:43:47;3.50;99.90
23122;DHT22;11730;51.248;22.534;2022-12-22T16:46:17;3.70;99.90
23122;DHT22;11730;51.248;22.534;2022-12-22T16:48:48;3.80;99.90
23122;DHT22;11730;51.248;22.534;2022-12-22T16:51:22;3.70;99.90
23122;DHT22;11730;51.248;22.534;2022-12-22T16:56:20;3.60;99.90
23122;DHT22;11730;51.248;22.534;2022-12-22T16:58:47;3.40;99.90
23122;DHT22;11730;51.248;22.534;2022-12-22T17:01:52;3.50;99.90
23122;DHT22;11730;51.248;22.534;2022-12-22T17:04:24;3.50;99.90
23122;DHT22;11730;51.248;22.534;2022-12-22T17:06:54;3.50;99.90
23122;DHT22;11730;51.248;22.534;2022-12-22T17:09:26;3.40;99.90
23122;DHT22;11730;51.248;22.534;2022-12-22T17:11:54;3.50;99.90
23122;DHT22;11730;51.248;22.534;2022-12-22T17:14:27;3.40;99.90
23122;DHT22;11730;51.248;22.534;2022-12-22T17:19:22;3.60;99.90
23122;DHT22;11730;51.248;22.534;2022-12-22T17:21:49;3.50;99.90
23122;DHT22;11730;51.248;22.534;2022-12-22T17:24:20;3.60;99.90
23122;DHT22;11730;51.248;22.534;2022-12-22T17:26:58;3.60;99.90
23122;DHT22;11730;51.248;22.534;2022-12-22T17:29:26;3.60;99.90
23122;DHT22;11730;51.248;22.534;2022-12-22T17:36:50;3.60;99.90
23122;DHT22;11730;51.248;22.534;2022-12-22T17:39:21;3.50;99.90
23122;DHT22;11730;51.248;22.534;2022-12-22T17:41:48;3.50;99.90
23122;DHT22;11730;51.248;22.534;2022-12-22T17:44:24;3.60;99.90
23122;DHT22;11730;51.248;22.534;2022-12-22T17:46:52;3.60;99.90
23122;DHT22;11730;51.248;22.534;2022-12-22T17:49:19;3.60;99.90
23122;DHT22;11730;51.248;22.534;2022-12-22T17:51:48;3.80;99.90
23122;DHT22;11730;51.248;22.534;2022-12-22T17:54:23;3.60;99.90
23122;DHT22;11730;51.248;22.534;2022-12-22T17:56:55;3.70;99.90
23122;DHT22;11730;51.248;22.534;2022-12-22T17:59:23;3.60;99.90
23122;DHT22;11730;51.248;22.534;2022-12-22T18:04:18;3.80;99.90
23122;DHT22;11730;51.248;22.534;2022-12-22T18:06:45;3.70;99.90
23122;DHT22;11730;51.248;22.534;2022-12-22T18:09:22;3.80;99.90
23122;DHT22;11730;51.248;22.534;2022-12-22T18:11:49;3.80;99.90
23122;DHT22;11730;51.248;22.534;2022-12-22T18:14:22;3.90;99.90
23122;DHT22;11730;51.248;22.534;2022-12-22T18:16:49;3.90;99.90
23122;DHT22;11730;51.248;22.534;2022-12-22T18:19:16;3.90;99.90
23122;DHT22;11730;51.248;22.534;2022-12-22T18:24:15;3.80;99.90
23122;DHT22;11730;51.248;22.534;2022-12-22T18:26:42;3.80;99.90
23122;DHT22;11730;51.248;22.534;2022-12-22T18:29:16;3.70;99.90
23122;DHT22;11730;51.248;22.534;2022-12-22T18:31:44;3.80;99.90
23122;DHT22;11730;51.248;22.534;2022-12-22T18:36:39;3.80;99.90
23122;DHT22;11730;51.248;22.534;2022-12-22T18:39:15;3.70;99.90
23122;DHT22;11730;51.248;22.534;2022-12-22T18:44:15;3.80;99.90
23122;DHT22;11730;51.248;22.534;2022-12-22T18:46:43;3.80;99.90
23122;DHT22;11730;51.248;22.534;2022-12-22T18:49:10;3.70;99.90
23122;DHT22;11730;51.248;22.534;2022-12-22T18:51:37;3.70;99.90
23122;DHT22;11730;51.248;22.534;2022-12-22T18:54:21;3.80;99.90
23122;DHT22;11730;51.248;22.534;2022-12-22T18:59:22;3.80;99.90
23122;DHT22;11730;51.248;22.534;2022-12-22T19:06:45;4.00;99.90
23122;DHT22;11730;51.248;22.534;2022-12-22T19:09:14;3.90;99.90
23122;DHT22;11730;51.248;22.534;2022-12-22T19:11:42;4.00;99.90
23122;DHT22;11730;51.248;22.534;2022-12-22T19:14:19;3.90;99.90
23122;DHT22;11730;51.248;22.534;2022-12-22T19:16:47;3.90;99.90
23122;DHT22;11730;51.248;22.534;2022-12-22T19:19:18;3.90;99.90
23122;DHT22;11730;51.248;22.534;2022-12-22T19:21:46;4.00;99.90
23122;DHT22;11730;51.248;22.534;2022-12-22T19:24:15;3.80;99.90
23122;DHT22;11730;51.248;22.534;2022-12-22T19:29:10;4.00;99.90
23122;DHT22;11730;51.248;22.534;2022-12-22T19:31:39;4.10;99.90
23122;DHT22;11730;51.248;22.534;2022-12-22T19:34:13;4.20;99.90
23122;DHT22;11730;51.248;22.534;2022-12-22T19:41:45;4.00;99.90
23122;DHT22;11730;51.248;22.534;2022-12-22T19:44:33;4.00;99.90
23122;DHT22;11730;51.248;22.534;2022-12-22T19:47:01;4.00;99.90
23122;DHT22;11730;51.248;22.534;2022-12-22T19:51:56;3.90;99.90
23122;DHT22;11730;51.248;22.534;2022-12-22T19:54:24;4.00;99.90
23122;DHT22;11730;51.248;22.534;2022-12-22T19:56:53;3.90;99.90
23122;DHT22;11730;51.248;22.534;2022-12-22T20:02:29;4.10;99.90
23122;DHT22;11730;51.248;22.534;2022-12-22T20:07:27;4.20;99.90
23122;DHT22;11730;51.248;22.534;2022-12-22T20:12:23;4.10;99.90
23122;DHT22;11730;51.248;22.534;2022-12-22T20:14:52;4.20;99.90
23122;DHT22;11730;51.248;22.534;2022-12-22T20:17:19;4.20;99.90
23122;DHT22;11730;51.248;22.534;2022-12-22T20:22:18;4.40;99.90
23122;DHT22;11730;51.248;22.534;2022-12-22T20:24:47;4.30;99.90
23122;DHT22;11730;51.248;22.534;2022-12-22T20:27:21;4.40;99.90
23122;DHT22;11730;51.248;22.534;2022-12-22T20:32:16;4.30;99.90
23122;DHT22;11730;51.248;22.534;2022-12-22T20:34:52;4.30;99.90
23122;DHT22;11730;51.248;22.534;2022-12-22T20:37:19;4.20;99.90
23122;DHT22;11730;51.248;22.534;2022-12-22T20:39:46;4.30;99.90
23122;DHT22;11730;51.248;22.534;2022-12-22T20:42:21;4.40;99.90
23122;DHT22;11730;51.248;22.534;2022-12-22T20:44:49;4.30;99.90
23122;DHT22;11730;51.248;22.534;2022-12-22T20:47:29;4.30;99.90
23122;DHT22;11730;51.248;22.534;2022-12-22T20:49:56;4.20;99.90
23122;DHT22;11730;51.248;22.534;2022-12-22T20:52:23;4.20;99.90
23122;DHT22;11730;51.248;22.534;2022-12-22T20:57:25;4.20;99.90
23122;DHT22;11730;51.248;22.534;2022-12-22T20:59:52;4.20;99.90
23122;DHT22;11730;51.248;22.534;2022-12-22T21:02:24;4.20;99.90
23122;DHT22;11730;51.248;22.534;2022-12-22T21:09:48;4.30;99.90
23122;DHT22;11730;51.248;22.534;2022-12-22T21:12:16;4.10;99.90
23122;DHT22;11730;51.248;22.534;2022-12-22T21:14:43;4.10;99.90
23122;DHT22;11730;51.248;22.534;2022-12-22T21:17:17;4.20;99.90
23122;DHT22;11730;51.248;22.534;2022-12-22T21:19:44;4.00;99.90
23122;DHT22;11730;51.248;22.534;2022-12-22T21:24:38;4.20;99.90
23122;DHT22;11730;51.248;22.534;2022-12-22T21:27:14;4.20;99.90
23122;DHT22;11730;51.248;22.534;2022-12-22T21:29:42;4.30;99.90
23122;DHT22;11730;51.248;22.534;2022-12-22T21:32:13;4.20;99.90